F\v Gure Gogoa — EAJC — position and weather

sailwx.info

Track history (hours):
 
Tides and Currents Weather Stations Pressure Air Temp Water Temp Dewpoint Dewpoint Depression Visibility Wind Speed Wind Dir Waves Ship Positions

F\v Gure Gogoa

Last reported at 2014-Oct-31 09:31 UTC. Time now 2014-Nov-01 14:11 UTC.
Position N 43°44' W 001°54'.

Length 37 m.

Type: Fishing. MMSI: 224128930.

Date/timePositionNaut miles runAvg speedWind from/ knotsBaromVisibWave heightAir tempDewpointWater temp
2014-Oct-31 09:31N 43°44' W 001°54'10 9.8
2014-Oct-31 08:33N 43°52' W 001°48'1010.0
2014-Oct-31 07:33N 44°01' W 001°42'8 7.9
2014-Oct-31 06:33N 44°08' W 001°36'1 0.8
2014-Oct-31 05:33N 44°07' W 001°37'1 0.6
2014-Oct-31 04:34N 44°07' W 001°37'1 1.1
2014-Oct-31 03:34N 44°06' W 001°36'1 0.6
2014-Oct-31 02:33N 44°05' W 001°36'1 0.9
2014-Oct-31 01:33N 44°05' W 001°35'1 1.2
2014-Oct-31 00:34N 44°06' W 001°36'3 2.8
2014-Oct-30 23:33N 44°07' W 001°39'4 4.1
2014-Oct-30 22:33N 44°07' W 001°34'9 9.1
2014-Oct-30 21:33N 43°59' W 001°38'1110.3
2014-Oct-30 20:30N 43°48' W 001°42'1310.6
2014-Oct-30 19:15N 43°37' W 001°53'17 1.9
2014-Oct-30 10:10N 43°55' W 001°54'710.1
2014-Oct-30 09:30N 44°01' W 001°51'1010.3
2014-Oct-30 08:34N 44°11' W 001°47'1010.5
2014-Oct-30 07:33N 44°20' W 001°42'1010.3
2014-Oct-30 06:33N 44°30' W 001°38'10 9.7
2014-Oct-30 05:34N 44°39' W 001°33'1 1.0
2014-Oct-30 04:33N 44°39' W 001°32'2 1.9
2014-Oct-30 03:34N 44°38' W 001°29'1 0.7
2014-Oct-30 02:32N 44°38' W 001°29'2 1.6
2014-Oct-30 01:34N 44°36' W 001°29'1 1.1
2014-Oct-30 00:33N 44°35' W 001°29'2 2.4
2014-Oct-29 23:33N 44°33' W 001°29'0 0.3
2014-Oct-29 22:34N 44°32' W 001°29'7 6.8
2014-Oct-29 21:34N 44°26' W 001°31'1 0.7
2014-Oct-29 20:32N 44°26' W 001°32'1 1.4
2014-Oct-29 19:33N 44°27' W 001°33'5 3.7
2014-Oct-29 18:04N 44°22' W 001°32'4 0.5
2014-Oct-29 10:04N 44°19' W 001°37'0 0.7
2014-Oct-29 09:33N 44°19' W 001°36'1 0.7
2014-Oct-29 08:32N 44°19' W 001°36'1 0.8
2014-Oct-29 07:33N 44°18' W 001°36'2 2.1
2014-Oct-29 06:33N 44°18' W 001°33'0 0.2
2014-Oct-29 05:33N 44°18' W 001°33'1 1.1
2014-Oct-29 04:34N 44°17' W 001°33'10 9.3
2014-Oct-29 03:29N 44°07' W 001°33'8 2.2
2014-Oct-29 00:07N 44°01' W 001°39'0 0.3
2014-Oct-28 23:33N 44°01' W 001°38'1 1.5
2014-Oct-28 22:33N 43°59' W 001°38'  
2014-Oct-22 08:19N 43°47' W 001°46'  
Track history (hours):
 
Tides and Currents Weather Stations Pressure Air Temp Water Temp Dewpoint Dewpoint Depression Visibility Wind Speed Wind Dir Waves Ship Positions

F\v Gure Gogoa

Last reported at 2014-Oct-31 09:31 UTC. Time now 2014-Nov-01 14:11 UTC.
Position N 43°44' W 001°54'.

Length 37 m.

Type: Fishing. MMSI: 224128930.

Date/timePositionNaut miles runAvg speedWind from/ knotsBaromVisibWave heightAir tempDewpointWater temp
2014-Oct-31 09:31N 43°44' W 001°54'10 9.8
2014-Oct-31 08:33N 43°52' W 001°48'1010.0
2014-Oct-31 07:33N 44°01' W 001°42'8 7.9
2014-Oct-31 06:33N 44°08' W 001°36'1 0.8
2014-Oct-31 05:33N 44°07' W 001°37'1 0.6
2014-Oct-31 04:34N 44°07' W 001°37'1 1.1
2014-Oct-31 03:34N 44°06' W 001°36'1 0.6
2014-Oct-31 02:33N 44°05' W 001°36'1 0.9
2014-Oct-31 01:33N 44°05' W 001°35'1 1.2
2014-Oct-31 00:34N 44°06' W 001°36'3 2.8
2014-Oct-30 23:33N 44°07' W 001°39'4 4.1
2014-Oct-30 22:33N 44°07' W 001°34'9 9.1
2014-Oct-30 21:33N 43°59' W 001°38'1110.3
2014-Oct-30 20:30N 43°48' W 001°42'1310.6
2014-Oct-30 19:15N 43°37' W 001°53'17 1.9
2014-Oct-30 10:10N 43°55' W 001°54'710.1
2014-Oct-30 09:30N 44°01' W 001°51'1010.3
2014-Oct-30 08:34N 44°11' W 001°47'1010.5
2014-Oct-30 07:33N 44°20' W 001°42'1010.3
2014-Oct-30 06:33N 44°30' W 001°38'10 9.7
2014-Oct-30 05:34N 44°39' W 001°33'1 1.0
2014-Oct-30 04:33N 44°39' W 001°32'2 1.9
2014-Oct-30 03:34N 44°38' W 001°29'1 0.7
2014-Oct-30 02:32N 44°38' W 001°29'2 1.6
2014-Oct-30 01:34N 44°36' W 001°29'1 1.1
2014-Oct-30 00:33N 44°35' W 001°29'2 2.4
2014-Oct-29 23:33N 44°33' W 001°29'0 0.3
2014-Oct-29 22:34N 44°32' W 001°29'7 6.8
2014-Oct-29 21:34N 44°26' W 001°31'1 0.7
2014-Oct-29 20:32N 44°26' W 001°32'1 1.4
2014-Oct-29 19:33N 44°27' W 001°33'5 3.7
2014-Oct-29 18:04N 44°22' W 001°32'4 0.5
2014-Oct-29 10:04N 44°19' W 001°37'0 0.7
2014-Oct-29 09:33N 44°19' W 001°36'1 0.7
2014-Oct-29 08:32N 44°19' W 001°36'1 0.8
2014-Oct-29 07:33N 44°18' W 001°36'2 2.1
2014-Oct-29 06:33N 44°18' W 001°33'0 0.2
2014-Oct-29 05:33N 44°18' W 001°33'1 1.1
2014-Oct-29 04:34N 44°17' W 001°33'10 9.3
2014-Oct-29 03:29N 44°07' W 001°33'8 2.2
2014-Oct-29 00:07N 44°01' W 001°39'0 0.3
2014-Oct-28 23:33N 44°01' W 001°38'1 1.5
2014-Oct-28 22:33N 43°59' W 001°38'  
2014-Oct-22 08:19N 43°47' W 001°46'  

Dump ship's entire track history